Weather at Brive-Souillac

Public forecast

Using degrees Celsius for public forecast. Weather courtesy of forecast.io.

Current aviation weather report (METAR) for Brive-Souillac

2024/06/19 23:00 (retrieved 25 minutes ago)

LFSL 192300Z AUTO 34005KT 310V010 9999 BKN008/// BKN021/// OVC028/// //////CB 19/17 Q1016

Closest aviation forecast (TAF) to Brive-Souillac

Closest forecast is Bergerac Dordogne Périgord Airport, 43.1 nm (79.8 km) WSW.

2024/06/19 20:06 (retrieved 3 hours ago)

TAF TAF LFBE 192000Z 1920/2012 CNL